createdAt,value
2022-08-26T00:02:20.938Z,96680.25
2022-08-26T00:04:48.429Z,96666.66
2022-08-26T00:07:17.192Z,96677.44
2022-08-26T00:09:47.402Z,96669.13
2022-08-26T00:12:16.657Z,96665.84
2022-08-26T00:14:43.202Z,96660.88
2022-08-26T00:17:10.215Z,96683.50
2022-08-26T00:19:37.276Z,96661.94
2022-08-26T00:22:06.577Z,96664.34
2022-08-26T00:24:33.190Z,96671.09
2022-08-26T00:27:02.245Z,96665.09
2022-08-26T00:29:35.573Z,96666.69
2022-08-26T00:32:04.355Z,96661.38
2022-08-26T00:34:31.035Z,96666.88
2022-08-26T00:36:57.577Z,96671.69
2022-08-26T00:39:24.211Z,96662.75
2022-08-26T00:41:50.777Z,96672.03
2022-08-26T00:44:20.337Z,96675.13
2022-08-26T00:46:51.395Z,96673.19
2022-08-26T00:49:25.906Z,96676.53
2022-08-26T00:51:57.293Z,96678.66
2022-08-26T00:54:27.408Z,96670.69
2022-08-26T00:57:16.722Z,96679.47
2022-08-26T00:59:50.848Z,96674.25
2022-08-26T01:02:21.469Z,96667.09
2022-08-26T01:04:56.582Z,96683.59
2022-08-26T01:07:30.328Z,96687.38
2022-08-26T01:09:59.852Z,96678.66
2022-08-26T01:12:35.521Z,96686.06
2022-08-26T01:15:08.667Z,96676.78
2022-08-26T01:17:38.487Z,96694.78
2022-08-26T01:20:28.291Z,96688.25
2022-08-26T01:23:01.655Z,96689.13
2022-08-26T01:25:35.140Z,96694.88
2022-08-26T01:28:05.986Z,96692.66
2022-08-26T01:30:34.070Z,96694.69
2022-08-26T01:33:09.115Z,96693.38
2022-08-26T01:35:38.381Z,96685.13
2022-08-26T01:38:07.340Z,96687.34
2022-08-26T01:40:37.300Z,96680.16
2022-08-26T01:43:10.241Z,96691.97
2022-08-26T01:45:40.429Z,96682.78
2022-08-26T01:48:11.658Z,96661.22
2022-08-26T01:50:38.954Z,96686.56
2022-08-26T01:53:12.026Z,96686.75
2022-08-26T01:55:42.933Z,96689.78
2022-08-26T01:58:18.223Z,96689.03
2022-08-26T02:00:45.756Z,96685.25
2022-08-26T02:03:19.214Z,96689.06
2022-08-26T02:05:58.501Z,96695.13
2022-08-26T02:08:36.948Z,96698.34
2022-08-26T02:11:08.907Z,96680.56
2022-08-26T02:13:42.050Z,96685.81
2022-08-26T02:16:09.393Z,96681.31
2022-08-26T02:18:38.939Z,96684.31
2022-08-26T02:21:07.482Z,96692.47
2022-08-26T02:23:37.790Z,96693.06
2022-08-26T02:26:10.262Z,96704.97
2022-08-26T02:28:46.871Z,96699.97
2022-08-26T02:31:13.580Z,96697.41
2022-08-26T02:33:43.027Z,96694.97
2022-08-26T02:36:13.413Z,96691.34
2022-08-26T02:38:40.180Z,96699.22
2022-08-26T02:41:10.199Z,96691.81
2022-08-26T02:43:36.965Z,96691.63
2022-08-26T02:46:03.991Z,96704.25
2022-08-26T02:48:31.151Z,96699.97
2022-08-26T02:51:01.760Z,96700.81
2022-08-26T02:53:32.132Z,96703.88
2022-08-26T02:56:07.279Z,96705.09
2022-08-26T02:58:38.713Z,96700.88
2022-08-26T03:01:06.545Z,96694.81
2022-08-26T03:03:35.666Z,96695.28
2022-08-26T03:06:04.666Z,96693.59
2022-08-26T03:08:31.263Z,96697.75
2022-08-26T03:10:57.888Z,96694.91
2022-08-26T03:13:24.726Z,96685.44
2022-08-26T03:15:53.926Z,96691.88
2022-08-26T03:18:20.973Z,96688.84
2022-08-26T03:20:50.047Z,96696.13
2022-08-26T03:23:16.620Z,96693.75
2022-08-26T03:25:51.569Z,96684.66
2022-08-26T03:28:19.522Z,96683.91
2022-08-26T03:30:49.302Z,96678.53
2022-08-26T03:33:16.628Z,96682.78
2022-08-26T03:35:45.591Z,96689.97
2022-08-26T03:38:12.204Z,96691.28
2022-08-26T03:40:42.742Z,96684.00
2022-08-26T03:43:11.912Z,96690.59
2022-08-26T03:45:39.515Z,96688.63
2022-08-26T03:48:10.309Z,96693.34
2022-08-26T03:50:37.616Z,96694.47
2022-08-26T03:53:04.914Z,96696.59
2022-08-26T03:55:36.126Z,96686.72
2022-08-26T03:58:04.147Z,96691.16
2022-08-26T04:00:31.009Z,96698.75
2022-08-26T04:02:57.694Z,96687.84
2022-08-26T04:05:28.369Z,96698.44
2022-08-26T04:07:55.036Z,96682.16
2022-08-26T04:10:29.069Z,96693.97
2022-08-26T04:12:59.381Z,96701.44
2022-08-26T04:15:27.061Z,96701.16
2022-08-26T04:17:54.396Z,96695.47
2022-08-26T04:20:24.832Z,96693.47
2022-08-26T04:22:51.983Z,96691.00
2022-08-26T04:25:21.354Z,96688.91
2022-08-26T04:27:48.542Z,96688.31
2022-08-26T04:30:15.399Z,96705.53
2022-08-26T04:32:44.177Z,96688.03
2022-08-26T04:35:10.858Z,96689.69
2022-08-26T04:37:44.011Z,96696.25
2022-08-26T04:40:13.124Z,96693.34
2022-08-26T04:42:40.169Z,96687.09
2022-08-26T04:45:09.903Z,96689.38
2022-08-26T04:47:37.237Z,96687.09
2022-08-26T04:50:07.388Z,96694.88
2022-08-26T04:52:35.602Z,96694.88
2022-08-26T04:55:05.967Z,96696.84
2022-08-26T04:57:33.717Z,96704.63
2022-08-26T05:00:02.561Z,96703.56
2022-08-26T05:02:31.909Z,96707.28
2022-08-26T05:05:02.085Z,96711.09
2022-08-26T05:07:28.890Z,96717.63
2022-08-26T05:09:55.435Z,96715.34
2022-08-26T05:12:24.536Z,96701.63
2022-08-26T05:14:51.176Z,96709.31
2022-08-26T05:17:18.433Z,96715.97
2022-08-26T05:19:47.366Z,96705.47
2022-08-26T05:22:17.333Z,96709.34
2022-08-26T05:24:49.737Z,96709.34
2022-08-26T05:27:21.276Z,96711.16
2022-08-26T05:29:48.258Z,96713.91
2022-08-26T05:32:23.238Z,96715.63
2022-08-26T05:34:57.109Z,96726.69
2022-08-26T05:37:25.205Z,96731.44
2022-08-26T05:39:52.139Z,96732.22
2022-08-26T05:42:20.457Z,96716.59
2022-08-26T05:44:55.487Z,96726.16
2022-08-26T05:47:22.806Z,96723.69
2022-08-26T05:49:51.649Z,96733.00
2022-08-26T05:52:19.103Z,96731.19
2022-08-26T05:54:45.643Z,96729.75
2022-08-26T05:57:14.267Z,96724.22
2022-08-26T05:59:40.901Z,96732.66
2022-08-26T06:02:08.563Z,96728.03
2022-08-26T06:04:35.590Z,96734.47
2022-08-26T06:07:03.139Z,96740.00
2022-08-26T06:09:31.991Z,96731.94
2022-08-26T06:12:02.194Z,96745.78
2022-08-26T06:14:28.924Z,96741.97
2022-08-26T06:16:58.040Z,96742.22
2022-08-26T06:19:25.044Z,96741.28
2022-08-26T06:22:23.550Z,96744.00
2022-08-26T06:25:09.378Z,96738.97
2022-08-26T06:27:41.351Z,96737.09
2022-08-26T06:30:11.521Z,96744.78
2022-08-26T06:32:39.049Z,96749.91
2022-08-26T06:35:12.086Z,96760.53
2022-08-26T06:37:43.801Z,96759.88
2022-08-26T06:40:13.257Z,96753.81
2022-08-26T06:42:43.009Z,96754.81
2022-08-26T06:45:12.394Z,96754.31
2022-08-26T06:47:38.982Z,96751.75
2022-08-26T06:50:06.163Z,96756.75
2022-08-26T06:52:34.947Z,96757.16
2022-08-26T06:55:01.680Z,96752.38
2022-08-26T06:57:28.688Z,96749.53
2022-08-26T06:59:58.358Z,96751.50
2022-08-26T07:02:25.096Z,96743.00
2022-08-26T07:04:58.156Z,96751.53
2022-08-26T07:07:30.159Z,96756.44
2022-08-26T07:09:59.973Z,96757.81
2022-08-26T07:12:29.228Z,96760.47
2022-08-26T07:14:58.367Z,96759.22
2022-08-26T07:17:25.373Z,96748.63
2022-08-26T07:19:54.159Z,96758.28
2022-08-26T07:22:22.987Z,96755.63
2022-08-26T07:24:50.827Z,96750.81
2022-08-26T07:27:18.008Z,96762.88
2022-08-26T07:29:45.377Z,96761.38
2022-08-26T07:32:17.074Z,96759.16
2022-08-26T07:34:47.655Z,96765.25
2022-08-26T07:37:16.809Z,96755.44
2022-08-26T07:39:46.844Z,96751.16
2022-08-26T07:42:16.676Z,96766.75
2022-08-26T07:44:45.297Z,96748.91
2022-08-26T07:47:24.828Z,96762.19
2022-08-26T07:49:57.576Z,96756.44
2022-08-26T07:52:29.056Z,96759.72
2022-08-26T07:55:00.664Z,96759.47
2022-08-26T07:57:30.833Z,96762.75
2022-08-26T08:00:00.800Z,96762.22
2022-08-26T08:02:29.099Z,96771.78
2022-08-26T08:04:56.804Z,96762.97
2022-08-26T08:07:45.018Z,96761.50
2022-08-26T08:10:21.714Z,96760.69
2022-08-26T08:12:52.875Z,96761.91
2022-08-26T08:15:27.833Z,96756.44
2022-08-26T08:18:00.190Z,96754.06
2022-08-26T08:20:28.447Z,96756.00
2022-08-26T08:22:59.643Z,96760.78
2022-08-26T08:25:26.270Z,96744.84
2022-08-26T08:27:53.208Z,96746.94
2022-08-26T08:30:23.109Z,96747.69
2022-08-26T08:32:52.494Z,96735.22
2022-08-26T08:35:26.496Z,96747.22
2022-08-26T08:37:57.974Z,96739.88
2022-08-26T08:40:29.444Z,96736.81
2022-08-26T08:42:59.000Z,96746.28
2022-08-26T08:45:36.278Z,96741.94
2022-08-26T08:48:29.654Z,96732.56
2022-08-26T08:51:07.987Z,96729.44
2022-08-26T08:53:45.184Z,96727.66
2022-08-26T08:56:26.254Z,96734.19
2022-08-26T08:59:20.350Z,96735.84
2022-08-26T09:01:54.134Z,96733.19
2022-08-26T09:04:48.170Z,96730.88
2022-08-26T09:07:42.457Z,96733.88
2022-08-26T09:10:41.313Z,96729.94
2022-08-26T09:13:16.900Z,96727.59
2022-08-26T09:16:02.126Z,96730.44
2022-08-26T09:18:54.197Z,96732.50
2022-08-26T09:21:25.294Z,96721.03
2022-08-26T09:23:57.008Z,96726.09
2022-08-26T09:26:41.305Z,96725.47
2022-08-26T09:29:23.336Z,96721.50
2022-08-26T09:31:51.518Z,96720.09
2022-08-26T09:34:27.434Z,96719.09
2022-08-26T09:36:58.985Z,96717.16
2022-08-26T09:39:28.369Z,96724.41
2022-08-26T09:42:20.646Z,96707.53
2022-08-26T09:45:08.597Z,96706.97
2022-08-26T09:47:39.062Z,96715.47
2022-08-26T09:50:19.873Z,96709.44
2022-08-26T09:52:47.111Z,96702.44
2022-08-26T09:55:21.376Z,96699.88
2022-08-26T09:57:51.336Z,96703.28
2022-08-26T10:00:23.871Z,96693.88
2022-08-26T10:02:57.869Z,96691.38
2022-08-26T10:05:43.799Z,96685.19
2022-08-26T10:08:18.592Z,96684.19
2022-08-26T10:10:48.861Z,96683.59
2022-08-26T10:13:23.646Z,96680.56
2022-08-26T10:16:20.452Z,96670.66
2022-08-26T10:19:00.296Z,96678.63
2022-08-26T10:21:35.591Z,96667.50
2022-08-26T10:24:07.233Z,96669.47
2022-08-26T10:27:01.293Z,96665.53
2022-08-26T10:29:45.940Z,96662.72
2022-08-26T10:32:40.784Z,96668.47
2022-08-26T10:35:11.659Z,96665.06
2022-08-26T10:37:46.707Z,96663.56
2022-08-26T10:40:35.477Z,96666.06
2022-08-26T10:43:21.199Z,96656.88
2022-08-26T10:45:53.290Z,96659.88
2022-08-26T10:48:44.612Z,96664.56
2022-08-26T10:51:15.017Z,96657.47
2022-08-26T10:53:51.375Z,96654.38
2022-08-26T10:56:46.627Z,96654.09
2022-08-26T10:59:16.055Z,96655.78
2022-08-26T11:01:54.843Z,96644.69
2022-08-26T11:04:48.188Z,96655.41
2022-08-26T11:07:31.741Z,96645.50
2022-08-26T11:10:30.986Z,96645.25
2022-08-26T11:13:00.215Z,96645.44
2022-08-26T11:15:28.160Z,96649.38
2022-08-26T11:18:02.892Z,96646.81
2022-08-26T11:20:36.563Z,96645.94
2022-08-26T11:23:12.466Z,96641.50
2022-08-26T11:26:12.551Z,96640.22
2022-08-26T11:28:53.424Z,96634.41
2022-08-26T11:31:26.922Z,96635.00
2022-08-26T11:34:02.658Z,96631.34
2022-08-26T11:36:49.934Z,96637.50
2022-08-26T11:39:49.358Z,96633.09
2022-08-26T11:42:38.160Z,96631.25
2022-08-26T11:45:17.430Z,96611.50
2022-08-26T11:47:44.758Z,96621.41
2022-08-26T11:50:14.350Z,96612.66
2022-08-26T11:52:50.496Z,96610.19
2022-08-26T11:55:17.883Z,96595.50
2022-08-26T11:57:53.196Z,96596.28
2022-08-26T12:00:35.370Z,96590.50
2022-08-26T12:03:07.479Z,96581.06
2022-08-26T12:05:45.946Z,96583.69
2022-08-26T12:08:18.152Z,96581.25
2022-08-26T12:10:45.465Z,96585.16
2022-08-26T12:13:26.310Z,96587.19
2022-08-26T12:16:00.121Z,96578.56
2022-08-26T12:18:34.039Z,96577.69
2022-08-26T12:21:14.536Z,96580.97
2022-08-26T12:23:46.805Z,96573.16
2022-08-26T12:26:25.486Z,96576.50
2022-08-26T12:28:54.425Z,96587.16
2022-08-26T12:31:24.608Z,96583.28
2022-08-26T12:33:54.831Z,96568.56
2022-08-26T12:36:39.367Z,96568.75
2022-08-26T12:39:10.966Z,96568.97
2022-08-26T12:41:55.978Z,96567.81
2022-08-26T12:44:53.158Z,96569.63
2022-08-26T12:47:43.203Z,96572.31
2022-08-26T12:50:12.863Z,96571.75
2022-08-26T12:53:01.465Z,96571.56
2022-08-26T12:55:35.545Z,96576.06
2022-08-26T12:58:31.641Z,96580.53
2022-08-26T13:01:22.681Z,96576.56
2022-08-26T13:03:52.415Z,96573.56
2022-08-26T13:06:28.188Z,96571.16
2022-08-26T13:09:25.382Z,96565.00
2022-08-26T13:11:54.596Z,96557.28
2022-08-26T13:14:24.932Z,96561.28
2022-08-26T13:17:00.024Z,96566.31
2022-08-26T13:19:29.984Z,96556.28
2022-08-26T13:21:58.788Z,96561.03
2022-08-26T13:24:42.030Z,96567.09
2022-08-26T13:27:13.594Z,96561.72
2022-08-26T13:29:42.769Z,96563.25
2022-08-26T13:32:09.758Z,96560.09
2022-08-26T13:34:37.476Z,96560.28
2022-08-26T13:37:07.380Z,96546.44
2022-08-26T13:39:36.792Z,96547.75
2022-08-26T13:42:03.576Z,96546.75
2022-08-26T13:44:30.242Z,96566.31
2022-08-26T13:46:59.882Z,96548.56
2022-08-26T13:49:26.493Z,96548.59
2022-08-26T13:51:55.380Z,96549.66
2022-08-26T13:54:22.137Z,96542.91
2022-08-26T13:56:48.760Z,96538.41
2022-08-26T13:59:15.407Z,96542.53
2022-08-26T14:01:44.801Z,96543.78
2022-08-26T14:04:14.088Z,96547.03
2022-08-26T14:06:40.739Z,96545.84
2022-08-26T14:09:07.384Z,96547.56
2022-08-26T14:11:53.946Z,96548.81
2022-08-26T14:14:25.053Z,96553.16
2022-08-26T14:16:58.849Z,96561.94
2022-08-26T14:19:26.841Z,96564.22
2022-08-26T14:21:53.534Z,96562.34
2022-08-26T14:24:20.122Z,96562.47
2022-08-26T14:26:48.582Z,96546.09
2022-08-26T14:29:16.797Z,96539.72
2022-08-26T14:31:44.187Z,96527.44
2022-08-26T14:34:14.803Z,96534.63
2022-08-26T14:36:41.694Z,96520.41
2022-08-26T14:39:10.649Z,96505.53
2022-08-26T14:41:54.042Z,96501.34
2022-08-26T14:44:25.765Z,96513.94
2022-08-26T14:46:55.708Z,96519.09
2022-08-26T14:49:24.425Z,96511.94
2022-08-26T14:51:51.116Z,96507.88
2022-08-26T14:54:18.589Z,96517.25
2022-08-26T14:56:47.231Z,96522.06
2022-08-26T14:59:18.953Z,96516.59
2022-08-26T15:01:45.813Z,96529.78
2022-08-26T15:04:15.502Z,96517.13
2022-08-26T15:06:44.676Z,96522.72
2022-08-26T15:09:14.438Z,96514.84
2022-08-26T15:11:43.542Z,96514.72
2022-08-26T15:14:18.940Z,96525.31
2022-08-26T15:16:48.932Z,96527.13
2022-08-26T15:19:16.446Z,96533.16
2022-08-26T15:21:47.131Z,96520.84
2022-08-26T15:24:16.083Z,96528.44
2022-08-26T15:26:45.789Z,96527.91
2022-08-26T15:29:12.983Z,96522.66
2022-08-26T15:31:43.069Z,96522.00
2022-08-26T15:34:16.831Z,96523.69
2022-08-26T15:36:46.481Z,96510.97
2022-08-26T15:39:17.257Z,96521.41
2022-08-26T15:41:46.479Z,96515.34
2022-08-26T15:44:14.310Z,96531.72
2022-08-26T15:46:42.161Z,96538.53
2022-08-26T15:49:18.193Z,96551.44
2022-08-26T15:51:48.037Z,96560.34
2022-08-26T15:54:23.031Z,96568.41
2022-08-26T15:56:53.098Z,96575.22
2022-08-26T15:59:22.770Z,96577.81
2022-08-26T16:01:49.534Z,96592.28
2022-08-26T16:04:21.003Z,96590.31
2022-08-26T16:06:52.291Z,96594.06
2022-08-26T16:09:24.216Z,96583.97
2022-08-26T16:11:51.249Z,96596.28
2022-08-26T16:14:18.042Z,96597.31
2022-08-26T16:16:44.742Z,96585.56
2022-08-26T16:19:11.721Z,96595.69
2022-08-26T16:21:40.397Z,96589.44
2022-08-26T16:24:07.928Z,96608.09
2022-08-26T16:26:36.846Z,96614.69
2022-08-26T16:29:08.709Z,96612.97
2022-08-26T16:31:40.329Z,96613.97
2022-08-26T16:34:08.021Z,96609.19
2022-08-26T16:36:36.718Z,96612.75
2022-08-26T16:39:08.274Z,96614.81
2022-08-26T16:41:35.435Z,96613.56
2022-08-26T16:44:02.452Z,96609.56
2022-08-26T16:46:29.938Z,96619.63
2022-08-26T16:48:58.452Z,96616.09
2022-08-26T16:51:27.792Z,96613.56
2022-08-26T16:53:56.535Z,96626.16
2022-08-26T16:56:33.382Z,96604.66
2022-08-26T16:59:02.088Z,96619.72
2022-08-26T17:01:28.757Z,96614.94
2022-08-26T17:03:55.469Z,96618.03
2022-08-26T17:06:24.521Z,96630.34
2022-08-26T17:08:51.444Z,96629.63
2022-08-26T17:11:18.694Z,96627.38
2022-08-26T17:13:47.762Z,96631.19
2022-08-26T17:16:15.206Z,96641.53
2022-08-26T17:18:41.948Z,96651.13
2022-08-26T17:21:12.880Z,96642.84
2022-08-26T17:23:41.256Z,96663.28
2022-08-26T17:26:08.409Z,96665.78
2022-08-26T17:28:35.557Z,96667.03
2022-08-26T17:31:04.849Z,96669.59
2022-08-26T17:33:34.428Z,96676.09
2022-08-26T17:36:03.475Z,96673.88
2022-08-26T17:38:32.709Z,96682.44
2022-08-26T17:40:59.320Z,96691.75
2022-08-26T17:43:26.895Z,96694.28
2022-08-26T17:46:04.614Z,96684.75
2022-08-26T17:48:35.059Z,96696.31
2022-08-26T17:51:06.801Z,96700.13
2022-08-26T17:53:34.101Z,96687.31
2022-08-26T17:56:00.850Z,96700.38
2022-08-26T17:58:31.052Z,96703.66
2022-08-26T18:01:01.273Z,96712.25
2022-08-26T18:03:30.150Z,96701.91
2022-08-26T18:06:01.776Z,96692.88
2022-08-26T18:08:33.857Z,96701.88
2022-08-26T18:11:05.783Z,96692.56
2022-08-26T18:13:33.137Z,96690.09
2022-08-26T18:16:05.602Z,96690.09
2022-08-26T18:18:35.887Z,96693.88
2022-08-26T18:21:05.661Z,96685.38
2022-08-26T18:23:32.254Z,96687.16
2022-08-26T18:25:58.868Z,96687.22
2022-08-26T18:28:28.503Z,96684.94
2022-08-26T18:30:57.846Z,96699.78
2022-08-26T18:33:24.452Z,96697.28
2022-08-26T18:35:53.328Z,96696.25
2022-08-26T18:38:22.440Z,96706.28
2022-08-26T18:40:52.010Z,96708.59
2022-08-26T18:43:18.959Z,96713.91
2022-08-26T18:45:45.532Z,96720.72
2022-08-26T18:48:15.777Z,96728.47
2022-08-26T18:50:46.989Z,96714.59
2022-08-26T18:53:13.913Z,96725.13
2022-08-26T18:55:40.966Z,96723.88
2022-08-26T18:58:08.043Z,96728.63
2022-08-26T19:00:34.592Z,96717.53
2022-08-26T19:03:01.231Z,96732.38
2022-08-26T19:05:30.116Z,96731.25
2022-08-26T19:07:56.687Z,96728.44
2022-08-26T19:10:24.586Z,96736.78
2022-08-26T19:12:51.811Z,96731.25
2022-08-26T19:15:23.507Z,96746.97
2022-08-26T19:17:50.345Z,96751.09
2022-08-26T19:20:17.029Z,96742.63
2022-08-26T19:22:48.307Z,96755.53
2022-08-26T19:25:15.395Z,96759.78
2022-08-26T19:27:46.480Z,96757.41
2022-08-26T19:30:15.861Z,96763.94
2022-08-26T19:32:44.718Z,96759.78
2022-08-26T19:35:13.510Z,96756.75
2022-08-26T19:37:40.083Z,96750.72
2022-08-26T19:40:07.768Z,96744.97
2022-08-26T19:42:34.423Z,96763.25
2022-08-26T19:45:24.325Z,96760.50
2022-08-26T19:47:52.980Z,96767.00
2022-08-26T19:50:22.090Z,96777.50
2022-08-26T19:52:48.921Z,96773.25
2022-08-26T19:55:20.473Z,96773.53
2022-08-26T19:57:47.177Z,96777.63
2022-08-26T20:00:20.340Z,96771.59
2022-08-26T20:02:47.442Z,96753.47
2022-08-26T20:05:15.817Z,96771.16
2022-08-26T20:07:42.503Z,96769.56
2022-08-26T20:10:14.289Z,96774.66
2022-08-26T20:12:41.786Z,96768.59
2022-08-26T20:15:10.196Z,96771.56
2022-08-26T20:17:39.544Z,96768.47
2022-08-26T20:20:33.285Z,96786.75
2022-08-26T20:23:04.453Z,96793.63
2022-08-26T20:25:34.095Z,96793.34
2022-08-26T20:28:01.258Z,96785.28
2022-08-26T20:30:28.420Z,96789.28
2022-08-26T20:32:57.787Z,96789.72
2022-08-26T20:35:27.504Z,96786.97
2022-08-26T20:37:54.098Z,96791.66
2022-08-26T20:40:22.166Z,96782.47
2022-08-26T20:42:48.860Z,96784.44
2022-08-26T20:45:18.438Z,96781.47
2022-08-26T20:47:48.487Z,96780.44
2022-08-26T20:50:15.272Z,96777.81
2022-08-26T20:52:41.841Z,96781.56
2022-08-26T20:55:08.975Z,96782.78
2022-08-26T20:57:37.810Z,96793.31
2022-08-26T21:00:05.968Z,96798.31
2022-08-26T21:02:33.101Z,96813.59
2022-08-26T21:05:03.174Z,96810.50
2022-08-26T21:07:30.673Z,96812.16
2022-08-26T21:09:57.295Z,96812.75
2022-08-26T21:12:24.383Z,96833.66
2022-08-26T21:14:50.937Z,96835.53
2022-08-26T21:17:19.941Z,96837.84
2022-08-26T21:19:49.269Z,96842.75
2022-08-26T21:22:15.866Z,96845.97
2022-08-26T21:24:44.808Z,96838.75
2022-08-26T21:27:11.488Z,96847.38
2022-08-26T21:29:38.105Z,96845.00
2022-08-26T21:32:07.988Z,96850.84
2022-08-26T21:34:36.661Z,96848.13
2022-08-26T21:37:05.963Z,96844.63
2022-08-26T21:39:43.098Z,96856.75
2022-08-26T21:42:09.699Z,96854.28
2022-08-26T21:44:36.359Z,96868.50
2022-08-26T21:47:04.903Z,96863.28
2022-08-26T21:49:31.600Z,96852.47
2022-08-26T21:51:58.285Z,96851.16
2022-08-26T21:54:24.903Z,96855.03
2022-08-26T21:56:53.349Z,96852.22
2022-08-26T21:59:19.925Z,96849.94
2022-08-26T22:01:47.118Z,96856.50
2022-08-26T22:04:16.256Z,96854.84
2022-08-26T22:06:50.689Z,96854.75
2022-08-26T22:09:21.712Z,96848.31
2022-08-26T22:11:49.047Z,96843.16
2022-08-26T22:14:23.952Z,96836.59
2022-08-26T22:16:54.598Z,96833.28
2022-08-26T22:19:24.204Z,96821.28
2022-08-26T22:21:57.867Z,96824.13
2022-08-26T22:24:27.103Z,96812.31
2022-08-26T22:26:56.015Z,96818.53
2022-08-26T22:29:25.705Z,96807.25
2022-08-26T22:31:54.731Z,96814.47
2022-08-26T22:34:23.718Z,96821.28
2022-08-26T22:36:50.761Z,96828.69
2022-08-26T22:39:20.299Z,96822.72
2022-08-26T22:41:48.418Z,96819.97
2022-08-26T22:44:18.363Z,96813.72
2022-08-26T22:46:49.235Z,96825.84
2022-08-26T22:49:16.608Z,96829.72
2022-08-26T22:51:46.993Z,96820.34
2022-08-26T22:54:14.896Z,96816.16
2022-08-26T22:56:42.737Z,96827.84
2022-08-26T22:59:09.500Z,96818.84
2022-08-26T23:01:41.258Z,96815.72
2022-08-26T23:04:09.867Z,96809.75
2022-08-26T23:06:41.274Z,96811.72
2022-08-26T23:09:11.655Z,96814.66
2022-08-26T23:11:42.182Z,96792.84
2022-08-26T23:14:09.055Z,96811.44
2022-08-26T23:16:39.361Z,96827.94
2022-08-26T23:19:06.903Z,96822.72
2022-08-26T23:21:35.871Z,96831.63
2022-08-26T23:24:06.206Z,96825.28
2022-08-26T23:26:33.784Z,96828.41
2022-08-26T23:29:01.467Z,96833.53
2022-08-26T23:31:28.233Z,96839.59
2022-08-26T23:34:16.101Z,96835.25
2022-08-26T23:36:46.420Z,96834.84
2022-08-26T23:39:16.545Z,96842.16
2022-08-26T23:41:45.641Z,96840.53
2022-08-26T23:44:12.832Z,96822.91
2022-08-26T23:46:39.939Z,96829.16
2022-08-26T23:49:12.875Z,96823.19
2022-08-26T23:52:00.587Z,96827.28
2022-08-26T23:54:29.813Z,96827.44
2022-08-26T23:56:58.822Z,96821.38
2022-08-26T23:59:25.871Z,96824.78
